sensor_id;sensor_type;location;lat;lon;timestamp;pressure;altitude;pressure_sealevel;temperature;humidity
33185;BME280;19550;42.872;25.494;2022-10-04T00:01:01;96438.97;;;11.46;92.39
33185;BME280;19550;42.872;25.494;2022-10-04T00:03:31;96439.66;;;11.43;92.89
33185;BME280;19550;42.872;25.494;2022-10-04T00:06:00;96442.06;;;11.45;92.36
33185;BME280;19550;42.872;25.494;2022-10-04T00:08:34;96433.44;;;11.46;93.35
33185;BME280;19550;42.872;25.494;2022-10-04T00:11:05;96441.25;;;11.44;92.93
33185;BME280;19550;42.872;25.494;2022-10-04T00:13:34;96436.34;;;11.33;93.37
33185;BME280;19550;42.872;25.494;2022-10-04T00:16:03;96445.50;;;11.42;92.98
33185;BME280;19550;42.872;25.494;2022-10-04T00:18:37;96442.72;;;11.50;92.73
33185;BME280;19550;42.872;25.494;2022-10-04T00:21:06;96437.19;;;11.50;92.12
33185;BME280;19550;42.872;25.494;2022-10-04T00:23:49;96448.78;;;11.52;92.41
33185;BME280;19550;42.872;25.494;2022-10-04T00:27:11;96440.94;;;11.54;92.54
33185;BME280;19550;42.872;25.494;2022-10-04T00:29:47;96444.38;;;11.51;92.34
33185;BME280;19550;42.872;25.494;2022-10-04T00:32:26;96446.16;;;11.47;93.48
33185;BME280;19550;42.872;25.494;2022-10-04T00:34:54;96436.03;;;11.51;93.43
33185;BME280;19550;42.872;25.494;2022-10-04T00:37:23;96450.25;;;11.50;93.40
33185;BME280;19550;42.872;25.494;2022-10-04T00:40:02;96455.31;;;11.48;93.26
33185;BME280;19550;42.872;25.494;2022-10-04T00:42:38;96446.00;;;11.52;92.94
33185;BME280;19550;42.872;25.494;2022-10-04T00:45:13;96445.34;;;11.47;93.36
33185;BME280;19550;42.872;25.494;2022-10-04T00:48:23;96447.97;;;11.52;92.97
33185;BME280;19550;42.872;25.494;2022-10-04T00:50:55;96449.44;;;11.49;93.82
33185;BME280;19550;42.872;25.494;2022-10-04T00:53:37;96437.66;;;11.44;93.21
33185;BME280;19550;42.872;25.494;2022-10-04T00:56:10;96447.00;;;11.48;93.43
33185;BME280;19550;42.872;25.494;2022-10-04T00:58:46;96439.31;;;11.53;92.84
33185;BME280;19550;42.872;25.494;2022-10-04T01:01:18;96436.53;;;11.53;92.80
33185;BME280;19550;42.872;25.494;2022-10-04T01:03:50;96433.25;;;11.51;92.93
33185;BME280;19550;42.872;25.494;2022-10-04T01:06:19;96423.63;;;11.40;92.83
33185;BME280;19550;42.872;25.494;2022-10-04T01:08:49;96439.31;;;11.53;93.06
33185;BME280;19550;42.872;25.494;2022-10-04T01:11:21;96431.50;;;11.55;93.60
33185;BME280;19550;42.872;25.494;2022-10-04T01:13:56;96439.47;;;11.57;92.82
33185;BME280;19550;42.872;25.494;2022-10-04T01:16:26;96432.78;;;11.58;92.76
33185;BME280;19550;42.872;25.494;2022-10-04T01:18:53;96433.13;;;11.57;93.14
33185;BME280;19550;42.872;25.494;2022-10-04T01:21:25;96434.91;;;11.52;92.78
33185;BME280;19550;42.872;25.494;2022-10-04T01:24:16;96434.25;;;11.47;93.18
33185;BME280;19550;42.872;25.494;2022-10-04T01:26:45;96433.94;;;11.48;93.11
33185;BME280;19550;42.872;25.494;2022-10-04T01:29:14;96434.75;;;11.49;93.16
33185;BME280;19550;42.872;25.494;2022-10-04T01:31:44;96434.75;;;11.49;93.42
33185;BME280;19550;42.872;25.494;2022-10-04T01:34:14;96425.56;;;11.31;94.10
33185;BME280;19550;42.872;25.494;2022-10-04T01:36:42;96438.31;;;11.32;94.30
33185;BME280;19550;42.872;25.494;2022-10-04T01:39:13;96449.72;;;11.31;94.30
33185;BME280;19550;42.872;25.494;2022-10-04T01:41:47;96452.34;;;11.27;95.38
33185;BME280;19550;42.872;25.494;2022-10-04T01:44:23;96455.75;;;11.24;95.45
33185;BME280;19550;42.872;25.494;2022-10-04T01:46:55;96444.34;;;11.26;95.18
33185;BME280;19550;42.872;25.494;2022-10-04T01:49:27;96444.31;;;11.17;95.20
33185;BME280;19550;42.872;25.494;2022-10-04T01:51:58;96453.13;;;11.19;95.00
33185;BME280;19550;42.872;25.494;2022-10-04T01:54:32;96452.16;;;11.15;95.32
33185;BME280;19550;42.872;25.494;2022-10-04T01:57:04;96457.72;;;11.15;96.43
33185;BME280;19550;42.872;25.494;2022-10-04T01:59:39;96456.22;;;11.09;96.09
33185;BME280;19550;42.872;25.494;2022-10-04T02:02:09;96447.25;;;11.12;95.79
33185;BME280;19550;42.872;25.494;2022-10-04T02:04:42;96439.91;;;11.07;96.66
33185;BME280;19550;42.872;25.494;2022-10-04T02:07:14;96454.28;;;11.09;96.42
33185;BME280;19550;42.872;25.494;2022-10-04T02:09:44;96448.84;;;11.04;97.05
33185;BME280;19550;42.872;25.494;2022-10-04T02:12:15;96458.50;;;11.07;96.04
33185;BME280;19550;42.872;25.494;2022-10-04T02:14:46;96465.84;;;11.11;96.72
33185;BME280;19550;42.872;25.494;2022-10-04T02:17:18;96460.78;;;11.05;96.56
33185;BME280;19550;42.872;25.494;2022-10-04T02:19:46;96451.97;;;11.03;96.65
33185;BME280;19550;42.872;25.494;2022-10-04T02:22:15;96449.19;;;11.03;96.30
33185;BME280;19550;42.872;25.494;2022-10-04T02:24:43;96465.16;;;10.97;96.91
33185;BME280;19550;42.872;25.494;2022-10-04T02:27:11;96459.28;;;10.99;96.67
33185;BME280;19550;42.872;25.494;2022-10-04T02:29:39;96455.69;;;10.98;97.01
33185;BME280;19550;42.872;25.494;2022-10-04T02:32:07;96450.66;;;11.00;97.48
33185;BME280;19550;42.872;25.494;2022-10-04T02:34:52;96452.75;;;10.95;97.64
33185;BME280;19550;42.872;25.494;2022-10-04T02:37:21;96450.16;;;10.90;97.19
33185;BME280;19550;42.872;25.494;2022-10-04T02:39:53;96464.06;;;11.07;96.47
33185;BME280;19550;42.872;25.494;2022-10-04T02:42:32;96437.25;;;10.94;96.97
33185;BME280;19550;42.872;25.494;2022-10-04T02:45:11;96465.84;;;11.03;97.04
33185;BME280;19550;42.872;25.494;2022-10-04T02:47:44;96460.28;;;11.03;97.21
33185;BME280;19550;42.872;25.494;2022-10-04T02:50:22;96466.31;;;11.05;96.80
33185;BME280;19550;42.872;25.494;2022-10-04T02:52:55;96474.78;;;11.00;97.16
33185;BME280;19550;42.872;25.494;2022-10-04T02:55:26;96460.72;;;10.88;98.07
33185;BME280;19550;42.872;25.494;2022-10-04T02:57:56;96463.47;;;10.79;98.17
33185;BME280;19550;42.872;25.494;2022-10-04T03:00:26;96458.13;;;10.83;98.40
33185;BME280;19550;42.872;25.494;2022-10-04T03:03:13;96470.66;;;10.80;98.42
33185;BME280;19550;42.872;25.494;2022-10-04T03:05:43;96465.59;;;10.82;98.95
33185;BME280;19550;42.872;25.494;2022-10-04T03:08:11;96474.09;;;10.86;98.19
33185;BME280;19550;42.872;25.494;2022-10-04T03:10:41;96479.94;;;10.84;99.00
33185;BME280;19550;42.872;25.494;2022-10-04T03:13:08;96480.09;;;10.79;98.83
33185;BME280;19550;42.872;25.494;2022-10-04T03:15:37;96481.13;;;10.83;99.12
33185;BME280;19550;42.872;25.494;2022-10-04T03:18:04;96478.81;;;10.77;100.00
33185;BME280;19550;42.872;25.494;2022-10-04T03:20:35;96487.13;;;10.77;99.46
33185;BME280;19550;42.872;25.494;2022-10-04T03:23:03;96482.56;;;10.81;99.32
33185;BME280;19550;42.872;25.494;2022-10-04T03:25:40;96483.22;;;10.86;99.13
33185;BME280;19550;42.872;25.494;2022-10-04T03:28:10;96487.44;;;10.75;99.97
33185;BME280;19550;42.872;25.494;2022-10-04T03:30:42;96493.81;;;10.75;99.90
33185;BME280;19550;42.872;25.494;2022-10-04T03:33:18;96496.56;;;10.75;99.97
33185;BME280;19550;42.872;25.494;2022-10-04T03:35:48;96498.22;;;10.77;100.00
33185;BME280;19550;42.872;25.494;2022-10-04T03:38:16;96497.88;;;10.78;100.00
33185;BME280;19550;42.872;25.494;2022-10-04T03:40:49;96499.28;;;10.67;100.00
33185;BME280;19550;42.872;25.494;2022-10-04T03:43:19;96495.38;;;10.68;100.00
33185;BME280;19550;42.872;25.494;2022-10-04T03:45:50;96495.56;;;10.71;100.00
33185;BME280;19550;42.872;25.494;2022-10-04T03:48:29;96494.50;;;10.59;100.00
33185;BME280;19550;42.872;25.494;2022-10-04T03:50:57;96495.47;;;10.54;100.00
33185;BME280;19550;42.872;25.494;2022-10-04T03:53:30;96499.06;;;10.55;100.00
33185;BME280;19550;42.872;25.494;2022-10-04T03:56:01;96504.94;;;10.53;100.00
33185;BME280;19550;42.872;25.494;2022-10-04T03:58:29;96506.56;;;10.54;100.00
33185;BME280;19550;42.872;25.494;2022-10-04T04:01:11;96508.06;;;10.60;100.00
33185;BME280;19550;42.872;25.494;2022-10-04T04:03:55;96509.19;;;10.59;100.00
33185;BME280;19550;42.872;25.494;2022-10-04T04:06:23;96500.44;;;10.66;100.00
33185;BME280;19550;42.872;25.494;2022-10-04T04:08:53;96506.66;;;10.71;100.00
33185;BME280;19550;42.872;25.494;2022-10-04T04:11:24;96519.38;;;10.72;100.00
33185;BME280;19550;42.872;25.494;2022-10-04T04:13:59;96513.22;;;10.75;100.00
33185;BME280;19550;42.872;25.494;2022-10-04T04:16:30;96495.19;;;10.64;100.00
33185;BME280;19550;42.872;25.494;2022-10-04T04:19:00;96528.25;;;10.83;100.00
33185;BME280;19550;42.872;25.494;2022-10-04T04:21:28;96524.66;;;10.83;100.00
33185;BME280;19550;42.872;25.494;2022-10-04T04:23:58;96534.28;;;10.85;100.00
33185;BME280;19550;42.872;25.494;2022-10-04T04:26:33;96538.06;;;10.89;100.00
33185;BME280;19550;42.872;25.494;2022-10-04T04:29:06;96530.72;;;10.93;100.00
33185;BME280;19550;42.872;25.494;2022-10-04T04:31:41;96530.41;;;10.95;100.00
33185;BME280;19550;42.872;25.494;2022-10-04T04:34:17;96552.28;;;10.96;100.00
33185;BME280;19550;42.872;25.494;2022-10-04T04:36:45;96542.81;;;10.97;100.00
33185;BME280;19550;42.872;25.494;2022-10-04T04:39:15;96548.91;;;11.08;100.00
33185;BME280;19550;42.872;25.494;2022-10-04T04:42:05;96538.78;;;11.03;99.90
33185;BME280;19550;42.872;25.494;2022-10-04T04:44:37;96554.44;;;11.08;99.85
33185;BME280;19550;42.872;25.494;2022-10-04T04:47:08;96555.06;;;11.05;100.00
33185;BME280;19550;42.872;25.494;2022-10-04T04:49:39;96560.34;;;11.15;100.00
33185;BME280;19550;42.872;25.494;2022-10-04T04:52:13;96565.09;;;11.14;100.00
33185;BME280;19550;42.872;25.494;2022-10-04T04:54:42;96555.28;;;11.17;99.88
33185;BME280;19550;42.872;25.494;2022-10-04T04:57:14;96564.44;;;11.18;99.99
33185;BME280;19550;42.872;25.494;2022-10-04T04:59:44;96561.66;;;11.18;100.00
33185;BME280;19550;42.872;25.494;2022-10-04T05:02:28;96556.63;;;11.20;99.83
33185;BME280;19550;42.872;25.494;2022-10-04T05:05:15;96558.25;;;11.21;100.00
33185;BME280;19550;42.872;25.494;2022-10-04T05:07:42;96564.31;;;11.31;100.00
33185;BME280;19550;42.872;25.494;2022-10-04T05:10:20;96564.47;;;11.26;99.67
33185;BME280;19550;42.872;25.494;2022-10-04T05:12:47;96568.06;;;11.27;100.00
33185;BME280;19550;42.872;25.494;2022-10-04T05:15:15;96573.00;;;11.30;99.56
33185;BME280;19550;42.872;25.494;2022-10-04T05:17:43;96568.88;;;11.27;100.00
33185;BME280;19550;42.872;25.494;2022-10-04T05:20:11;96571.34;;;11.29;99.88
33185;BME280;19550;42.872;25.494;2022-10-04T05:22:42;96573.00;;;11.30;99.40
33185;BME280;19550;42.872;25.494;2022-10-04T05:25:15;96581.63;;;11.28;99.94
33185;BME280;19550;42.872;25.494;2022-10-04T05:27:45;96583.75;;;11.31;100.00
33185;BME280;19550;42.872;25.494;2022-10-04T05:30:24;96584.91;;;11.39;100.00
33185;BME280;19550;42.872;25.494;2022-10-04T05:33:00;96583.44;;;11.33;99.29
33185;BME280;19550;42.872;25.494;2022-10-04T05:35:40;96588.50;;;11.39;99.01
33185;BME280;19550;42.872;25.494;2022-10-04T05:38:12;96590.78;;;11.37;98.76
33185;BME280;19550;42.872;25.494;2022-10-04T05:40:47;96584.59;;;11.40;98.95
33185;BME280;19550;42.872;25.494;2022-10-04T05:43:21;96585.75;;;11.39;98.88
33185;BME280;19550;42.872;25.494;2022-10-04T05:46:10;96598.19;;;11.50;98.65
33185;BME280;19550;42.872;25.494;2022-10-04T05:48:41;96609.16;;;11.55;98.85
33185;BME280;19550;42.872;25.494;2022-10-04T05:51:11;96615.19;;;11.57;98.06
33185;BME280;19550;42.872;25.494;2022-10-04T05:53:41;96616.50;;;11.60;98.83
33185;BME280;19550;42.872;25.494;2022-10-04T05:56:11;96618.78;;;11.58;98.81
33185;BME280;19550;42.872;25.494;2022-10-04T05:58:56;96616.66;;;11.64;98.13
33185;BME280;19550;42.872;25.494;2022-10-04T06:01:40;96625.19;;;11.67;98.74
33185;BME280;19550;42.872;25.494;2022-10-04T06:04:24;96633.22;;;11.69;98.28
33185;BME280;19550;42.872;25.494;2022-10-04T06:06:58;96640.06;;;11.71;98.54
33185;BME280;19550;42.872;25.494;2022-10-04T06:09:51;96639.91;;;11.68;97.66
33185;BME280;19550;42.872;25.494;2022-10-04T06:12:30;96643.88;;;11.84;98.21
33185;BME280;19550;42.872;25.494;2022-10-04T06:15:38;96638.66;;;11.91;96.33
33185;BME280;19550;42.872;25.494;2022-10-04T06:18:24;96636.75;;;12.00;96.09
33185;BME280;19550;42.872;25.494;2022-10-04T06:21:15;96641.97;;;12.02;96.41
33185;BME280;19550;42.872;25.494;2022-10-04T06:23:50;96637.41;;;12.06;95.85
33185;BME280;19550;42.872;25.494;2022-10-04T06:26:21;96639.69;;;12.12;95.28
33185;BME280;19550;42.872;25.494;2022-10-04T06:28:54;96652.44;;;12.13;95.41
33185;BME280;19550;42.872;25.494;2022-10-04T06:31:46;96658.16;;;12.08;95.27
33185;BME280;19550;42.872;25.494;2022-10-04T06:34:40;96658.00;;;12.13;95.32
33185;BME280;19550;42.872;25.494;2022-10-04T06:37:30;96668.16;;;12.09;96.01
33185;BME280;19550;42.872;25.494;2022-10-04T06:43:29;96640.84;;;12.11;94.52
33185;BME280;19550;42.872;25.494;2022-10-04T06:46:06;96667.19;;;12.31;94.77
33185;BME280;19550;42.872;25.494;2022-10-04T06:48:52;96674.41;;;12.41;93.39
33185;BME280;19550;42.872;25.494;2022-10-04T06:51:36;96674.88;;;12.34;94.13
33185;BME280;19550;42.872;25.494;2022-10-04T06:54:16;96683.06;;;12.48;93.70
33185;BME280;19550;42.872;25.494;2022-10-04T06:56:58;96679.13;;;12.57;93.07
33185;BME280;19550;42.872;25.494;2022-10-04T06:59:39;96682.09;;;12.61;91.41
33185;BME280;19550;42.872;25.494;2022-10-04T07:02:13;96682.75;;;12.75;92.10
33185;BME280;19550;42.872;25.494;2022-10-04T07:04:49;96695.03;;;12.83;92.10
33185;BME280;19550;42.872;25.494;2022-10-04T07:07:22;96691.09;;;12.92;91.27
33185;BME280;19550;42.872;25.494;2022-10-04T07:09:59;96685.84;;;13.17;89.98
33185;BME280;19550;42.872;25.494;2022-10-04T07:12:31;96676.31;;;13.35;89.58
33185;BME280;19550;42.872;25.494;2022-10-04T07:15:02;96690.09;;;13.78;87.85
33185;BME280;19550;42.872;25.494;2022-10-04T07:17:38;96692.22;;;14.10;86.54
33185;BME280;19550;42.872;25.494;2022-10-04T07:20:17;96692.56;;;14.09;85.39
33185;BME280;19550;42.872;25.494;2022-10-04T07:22:50;96692.63;;;14.00;86.13
33185;BME280;19550;42.872;25.494;2022-10-04T07:25:23;96701.59;;;14.06;85.63
33185;BME280;19550;42.872;25.494;2022-10-04T07:27:57;96701.31;;;13.99;86.06
33185;BME280;19550;42.872;25.494;2022-10-04T07:30:50;96692.91;;;13.69;86.95
33185;BME280;19550;42.872;25.494;2022-10-04T07:33:23;96703.81;;;13.83;86.93
33185;BME280;19550;42.872;25.494;2022-10-04T07:35:54;96704.84;;;13.78;86.60
33185;BME280;19550;42.872;25.494;2022-10-04T07:38:27;96709.50;;;13.57;87.76
33185;BME280;19550;42.872;25.494;2022-10-04T07:41:06;96715.13;;;13.40;88.11
33185;BME280;19550;42.872;25.494;2022-10-04T07:43:35;96719.03;;;13.39;88.89
33185;BME280;19550;42.872;25.494;2022-10-04T07:46:11;96710.19;;;13.45;88.99
33185;BME280;19550;42.872;25.494;2022-10-04T07:48:40;96715.91;;;13.49;88.91
33185;BME280;19550;42.872;25.494;2022-10-04T07:51:18;96714.63;;;13.38;88.41
33185;BME280;19550;42.872;25.494;2022-10-04T07:53:48;96715.94;;;13.32;89.07
33185;BME280;19550;42.872;25.494;2022-10-04T07:56:26;96718.88;;;13.44;89.36
33185;BME280;19550;42.872;25.494;2022-10-04T07:59:14;96724.09;;;13.45;88.95
33185;BME280;19550;42.872;25.494;2022-10-04T08:01:48;96732.44;;;13.63;87.55
33185;BME280;19550;42.872;25.494;2022-10-04T08:04:31;96735.22;;;13.63;88.19
33185;BME280;19550;42.872;25.494;2022-10-04T08:07:14;96737.50;;;13.69;87.98
33185;BME280;19550;42.872;25.494;2022-10-04T08:09:56;96732.69;;;13.78;87.69
33185;BME280;19550;42.872;25.494;2022-10-04T08:12:35;96730.66;;;13.96;86.09
33185;BME280;19550;42.872;25.494;2022-10-04T08:15:28;96734.31;;;14.17;85.94
33185;BME280;19550;42.872;25.494;2022-10-04T08:18:04;96727.47;;;14.15;84.98
33185;BME280;19550;42.872;25.494;2022-10-04T08:20:39;96734.75;;;13.99;85.52
33185;BME280;19550;42.872;25.494;2022-10-04T08:23:27;96738.84;;;14.01;85.04
33185;BME280;19550;42.872;25.494;2022-10-04T08:26:06;96737.84;;;14.06;85.40
33185;BME280;19550;42.872;25.494;2022-10-04T08:28:44;96736.22;;;13.96;85.25
33185;BME280;19550;42.872;25.494;2022-10-04T08:31:51;96730.72;;;14.17;86.10
33185;BME280;19550;42.872;25.494;2022-10-04T08:34:35;96731.69;;;14.21;86.09
33185;BME280;19550;42.872;25.494;2022-10-04T08:37:16;96734.75;;;14.66;82.60
33185;BME280;19550;42.872;25.494;2022-10-04T08:40:16;96734.41;;;15.09;82.54
33185;BME280;19550;42.872;25.494;2022-10-04T08:43:11;96731.75;;;14.92;80.90
33185;BME280;19550;42.872;25.494;2022-10-04T08:46:03;96735.13;;;14.77;81.19
33185;BME280;19550;42.872;25.494;2022-10-04T08:48:44;96734.69;;;14.95;81.24
33185;BME280;19550;42.872;25.494;2022-10-04T08:51:53;96729.38;;;14.82;81.77
33185;BME280;19550;42.872;25.494;2022-10-04T08:54:54;96735.25;;;14.89;79.43
33185;BME280;19550;42.872;25.494;2022-10-04T08:57:48;96741.91;;;14.76;80.53
33185;BME280;19550;42.872;25.494;2022-10-04T09:00:19;96733.94;;;15.07;80.81
33185;BME280;19550;42.872;25.494;2022-10-04T09:06:12;96733.50;;;14.96;79.12
33185;BME280;19550;42.872;25.494;2022-10-04T09:12:17;96746.81;;;14.99;79.67
33185;BME280;19550;42.872;25.494;2022-10-04T09:14:58;96748.56;;;15.25;77.96
33185;BME280;19550;42.872;25.494;2022-10-04T09:17:37;96743.81;;;15.58;75.91
33185;BME280;19550;42.872;25.494;2022-10-04T09:20:20;96743.53;;;15.84;76.17
33185;BME280;19550;42.872;25.494;2022-10-04T09:22:53;96747.59;;;15.74;76.73
33185;BME280;19550;42.872;25.494;2022-10-04T09:25:30;96745.31;;;15.88;77.57
33185;BME280;19550;42.872;25.494;2022-10-04T09:28:26;96758.88;;;16.35;74.90
33185;BME280;19550;42.872;25.494;2022-10-04T09:31:11;96745.34;;;16.37;73.71
33185;BME280;19550;42.872;25.494;2022-10-04T09:33:52;96758.41;;;16.33;73.03
33185;BME280;19550;42.872;25.494;2022-10-04T09:36:41;96764.03;;;16.82;71.21
33185;BME280;19550;42.872;25.494;2022-10-04T09:39:45;96753.88;;;16.53;71.96
33185;BME280;19550;42.872;25.494;2022-10-04T09:42:44;96761.53;;;16.19;71.92
33185;BME280;19550;42.872;25.494;2022-10-04T09:45:30;96762.13;;;16.25;71.88
33185;BME280;19550;42.872;25.494;2022-10-04T09:48:28;96766.31;;;16.07;72.35
33185;BME280;19550;42.872;25.494;2022-10-04T09:51:15;96770.19;;;15.48;72.81
33185;BME280;19550;42.872;25.494;2022-10-04T09:53:57;96768.97;;;15.58;75.48
33185;BME280;19550;42.872;25.494;2022-10-04T09:56:55;96768.97;;;15.58;73.98
33185;BME280;19550;42.872;25.494;2022-10-04T09:59:37;96767.44;;;15.81;74.37
33185;BME280;19550;42.872;25.494;2022-10-04T10:02:49;96770.94;;;15.90;74.26
33185;BME280;19550;42.872;25.494;2022-10-04T10:05:28;96775.84;;;16.06;73.63
33185;BME280;19550;42.872;25.494;2022-10-04T10:08:07;96769.44;;;16.05;73.24
33185;BME280;19550;42.872;25.494;2022-10-04T10:10:49;96772.22;;;15.93;73.31
33185;BME280;19550;42.872;25.494;2022-10-04T10:16:37;96770.94;;;15.90;73.56
33185;BME280;19550;42.872;25.494;2022-10-04T10:22:25;96770.50;;;16.01;71.82
33185;BME280;19550;42.872;25.494;2022-10-04T10:25:17;96770.50;;;16.01;73.58
33185;BME280;19550;42.872;25.494;2022-10-04T10:28:02;96774.16;;;15.47;73.05
33185;BME280;19550;42.872;25.494;2022-10-04T10:30:44;96766.19;;;15.37;74.05
33185;BME280;19550;42.872;25.494;2022-10-04T10:33:35;96772.09;;;15.57;74.95
33185;BME280;19550;42.872;25.494;2022-10-04T10:36:28;96772.28;;;15.72;74.89
33185;BME280;19550;42.872;25.494;2022-10-04T10:39:20;96766.31;;;16.19;73.75
33185;BME280;19550;42.872;25.494;2022-10-04T10:42:04;96772.66;;;16.64;71.80
33185;BME280;19550;42.872;25.494;2022-10-04T10:44:56;96756.91;;;17.24;68.14
33185;BME280;19550;42.872;25.494;2022-10-04T10:47:40;96757.63;;;18.05;67.04
33185;BME280;19550;42.872;25.494;2022-10-04T10:50:48;96759.88;;;17.99;63.84
33185;BME280;19550;42.872;25.494;2022-10-04T10:53:59;96760.88;;;17.23;64.76
33185;BME280;19550;42.872;25.494;2022-10-04T10:56:42;96761.88;;;17.03;65.93
33185;BME280;19550;42.872;25.494;2022-10-04T10:59:30;96767.84;;;16.89;65.90
33185;BME280;19550;42.872;25.494;2022-10-04T11:02:35;96767.16;;;16.92;66.45
33185;BME280;19550;42.872;25.494;2022-10-04T11:05:26;96770.63;;;17.14;66.63
33185;BME280;19550;42.872;25.494;2022-10-04T11:07:59;96758.66;;;16.77;66.46
33185;BME280;19550;42.872;25.494;2022-10-04T11:11:01;96766.66;;;16.29;67.22
33185;BME280;19550;42.872;25.494;2022-10-04T11:14:09;96770.75;;;16.32;68.75
33185;BME280;19550;42.872;25.494;2022-10-04T11:17:07;96770.94;;;16.03;68.23
33185;BME280;19550;42.872;25.494;2022-10-04T11:20:06;96779.22;;;15.99;68.47
33185;BME280;19550;42.872;25.494;2022-10-04T11:23:03;96774.38;;;16.20;68.94
33185;BME280;19550;42.872;25.494;2022-10-04T11:25:55;96772.63;;;16.28;67.78
33185;BME280;19550;42.872;25.494;2022-10-04T11:28:33;96768.06;;;16.36;68.15
33185;BME280;19550;42.872;25.494;2022-10-04T11:34:28;96792.56;;;16.39;68.56
33185;BME280;19550;42.872;25.494;2022-10-04T11:37:12;96789.16;;;16.09;70.46
33185;BME280;19550;42.872;25.494;2022-10-04T11:39:54;96784.81;;;15.99;70.45
33185;BME280;19550;42.872;25.494;2022-10-04T11:42:39;96778.00;;;16.21;71.11
33185;BME280;19550;42.872;25.494;2022-10-04T11:45:37;96783.75;;;16.61;69.60
33185;BME280;19550;42.872;25.494;2022-10-04T11:48:18;96778.00;;;16.94;67.83
33185;BME280;19550;42.872;25.494;2022-10-04T11:51:05;96780.91;;;17.37;66.13
33185;BME280;19550;42.872;25.494;2022-10-04T11:54:00;96761.97;;;18.18;64.35
33185;BME280;19550;42.872;25.494;2022-10-04T11:56:47;96768.78;;;18.64;61.63
33185;BME280;19550;42.872;25.494;2022-10-04T11:59:28;96779.78;;;18.10;62.16
33185;BME280;19550;42.872;25.494;2022-10-04T12:02:17;96783.78;;;17.65;63.10
33185;BME280;19550;42.872;25.494;2022-10-04T12:05:02;96790.28;;;17.41;64.84
33185;BME280;19550;42.872;25.494;2022-10-04T12:07:49;96790.72;;;17.43;65.29
33185;BME280;19550;42.872;25.494;2022-10-04T12:10:28;96786.78;;;17.72;64.92
33185;BME280;19550;42.872;25.494;2022-10-04T12:13:32;96795.16;;;17.44;65.09
33185;BME280;19550;42.872;25.494;2022-10-04T12:16:36;96782.22;;;17.40;64.76
33185;BME280;19550;42.872;25.494;2022-10-04T12:19:24;96778.47;;;17.36;64.80
33185;BME280;19550;42.872;25.494;2022-10-04T12:22:01;96786.66;;;17.69;64.88
33185;BME280;19550;42.872;25.494;2022-10-04T12:24:54;96778.31;;;17.84;63.89
33185;BME280;19550;42.872;25.494;2022-10-04T12:27:41;96785.53;;;17.85;62.01
33185;BME280;19550;42.872;25.494;2022-10-04T12:30:20;96764.94;;;18.09;60.72
33185;BME280;19550;42.872;25.494;2022-10-04T12:32:55;96776.63;;;18.11;61.21
33185;BME280;19550;42.872;25.494;2022-10-04T12:35:35;96781.88;;;17.69;62.42
33185;BME280;19550;42.872;25.494;2022-10-04T12:41:10;96777.63;;;18.50;60.53
33185;BME280;19550;42.872;25.494;2022-10-04T12:43:50;96772.09;;;19.01;58.42
33185;BME280;19550;42.872;25.494;2022-10-04T12:46:27;96772.50;;;19.38;58.00
33185;BME280;19550;42.872;25.494;2022-10-04T12:49:05;96775.00;;;19.24;56.71
33185;BME280;19550;42.872;25.494;2022-10-04T12:51:48;96773.22;;;19.51;56.60
33185;BME280;19550;42.872;25.494;2022-10-04T12:54:31;96764.19;;;19.61;55.85
33185;BME280;19550;42.872;25.494;2022-10-04T12:57:20;96768.59;;;20.00;54.54
33185;BME280;19550;42.872;25.494;2022-10-04T12:59:55;96765.84;;;20.04;54.21
33185;BME280;19550;42.872;25.494;2022-10-04T13:02:52;96773.00;;;20.20;55.08
33185;BME280;19550;42.872;25.494;2022-10-04T13:05:26;96770.78;;;20.52;53.53
33185;BME280;19550;42.872;25.494;2022-10-04T13:08:03;96777.75;;;20.62;53.33
33185;BME280;19550;42.872;25.494;2022-10-04T13:10:45;96767.28;;;21.12;52.77
33185;BME280;19550;42.872;25.494;2022-10-04T13:13:31;96775.63;;;21.27;50.70
33185;BME280;19550;42.872;25.494;2022-10-04T13:16:07;96775.66;;;21.31;50.90
33185;BME280;19550;42.872;25.494;2022-10-04T13:18:42;96776.38;;;21.24;51.48
33185;BME280;19550;42.872;25.494;2022-10-04T13:21:16;96784.09;;;21.05;52.70
33185;BME280;19550;42.872;25.494;2022-10-04T13:23:54;96778.84;;;21.03;51.12
33185;BME280;19550;42.872;25.494;2022-10-04T13:26:32;96774.59;;;20.90;52.63
33185;BME280;19550;42.872;25.494;2022-10-04T13:29:05;96778.69;;;20.24;53.25
33185;BME280;19550;42.872;25.494;2022-10-04T13:31:45;96790.63;;;20.17;54.30
33185;BME280;19550;42.872;25.494;2022-10-04T13:34:23;96792.44;;;19.49;55.19
33185;BME280;19550;42.872;25.494;2022-10-04T13:37:05;96790.53;;;18.67;57.17
33185;BME280;19550;42.872;25.494;2022-10-04T13:39:46;96786.69;;;18.44;58.58
33185;BME280;19550;42.872;25.494;2022-10-04T13:42:32;96786.72;;;18.28;59.00
33185;BME280;19550;42.872;25.494;2022-10-04T13:45:12;96786.66;;;17.97;58.82
33185;BME280;19550;42.872;25.494;2022-10-04T13:47:55;96779.19;;;17.73;60.82
33185;BME280;19550;42.872;25.494;2022-10-04T13:50:40;96787.81;;;17.80;61.42
33185;BME280;19550;42.872;25.494;2022-10-04T13:53:22;96783.19;;;17.60;64.03
33185;BME280;19550;42.872;25.494;2022-10-04T13:56:28;96797.38;;;17.39;65.53
33185;BME280;19550;42.872;25.494;2022-10-04T13:59:08;96792.06;;;17.09;64.41
33185;BME280;19550;42.872;25.494;2022-10-04T14:01:57;96792.53;;;17.24;63.31
33185;BME280;19550;42.872;25.494;2022-10-04T14:07:57;96804.16;;;16.86;64.71
33185;BME280;19550;42.872;25.494;2022-10-04T14:13:44;96797.94;;;16.44;67.43
33185;BME280;19550;42.872;25.494;2022-10-04T14:16:29;96811.53;;;16.09;68.90
33185;BME280;19550;42.872;25.494;2022-10-04T14:19:41;96816.56;;;16.15;70.13